Time;durP1;ratioP1;P1;durP2;ratioP2;P2;SDS_P1;SDS_P2;PMS_P1;PMS_P2;Temp;Humidity;BMP_temperature;BMP_pressure;BME280_temperature;BME280_humidity;BME280_pressure;Samples;Min_cycle;Max_cycle;Signal;HPM_P1;HPM_P2
2022/02/07 00:00:16;;;;;;;1999.90;999.90;;;4.90;99.90;;;;;;4997150;28;20393;-75
2022/02/07 00:05:16;;;;;;;1999.90;999.90;;;5.00;99.90;;;;;;4995935;28;20950;-74
2022/02/07 00:07:42;;;;;;;1999.90;999.90;;;5.00;99.90;;;;;;4995303;28;20409;-76
2022/02/07 00:10:08;;;;;;;1999.90;999.90;;;5.10;99.90;;;;;;4995102;28;20952;-75
2022/02/07 00:12:34;;;;;;;1999.90;999.90;;;5.10;99.90;;;;;;4995783;28;20530;-75
2022/02/07 00:14:59;;;;;;;1999.90;999.90;;;5.10;99.90;;;;;;4996099;28;20204;-74
2022/02/07 00:17:25;;;;;;;1999.90;999.90;;;5.10;99.90;;;;;;4995910;28;20173;-74
2022/02/07 00:19:50;;;;;;;1999.90;999.90;;;5.00;99.90;;;;;;4995594;28;20170;-74
2022/02/07 00:22:16;;;;;;;1999.90;999.90;;;5.00;99.90;;;;;;4994145;28;20209;-75
2022/02/07 00:24:41;;;;;;;1999.90;999.90;;;4.90;99.90;;;;;;4996326;28;20178;-74
2022/02/07 00:27:07;;;;;;;1999.90;999.90;;;4.90;99.90;;;;;;4994580;28;20169;-75
2022/02/07 00:29:33;;;;;;;1999.90;999.90;;;4.90;99.90;;;;;;4995959;28;20224;-74
2022/02/07 00:31:58;;;;;;;1999.90;999.90;;;4.90;99.90;;;;;;4995880;28;20166;-75
2022/02/07 00:34:24;;;;;;;1999.90;999.90;;;4.80;99.90;;;;;;4995345;28;20258;-75
2022/02/07 00:36:49;;;;;;;1999.90;999.90;;;4.70;99.90;;;;;;4994400;28;20173;-75
2022/02/07 00:39:23;;;;;;;1999.90;999.90;;;4.60;99.90;;;;;;4995392;28;20162;-74
2022/02/07 00:41:57;;;;;;;1999.90;999.90;;;4.40;99.90;;;;;;4995318;28;20159;-74
2022/02/07 00:44:22;;;;;;;1999.90;999.90;;;4.40;99.90;;;;;;4995731;28;20190;-75
2022/02/07 00:47:06;;;;;;;1999.90;999.90;;;4.40;99.90;;;;;;4997096;28;20220;-74
2022/02/07 00:49:33;;;;;;;1999.90;999.90;;;4.20;99.90;;;;;;4997456;28;20262;-74
2022/02/07 00:51:58;;;;;;;1999.90;999.90;;;4.10;99.90;;;;;;4996182;28;20197;-75
2022/02/07 00:54:24;;;;;;;1999.90;999.90;;;4.00;99.90;;;;;;4995448;28;20202;-75
2022/02/07 00:56:50;;;;;;;1999.90;999.90;;;3.90;99.90;;;;;;4996539;28;20221;-74
2022/02/07 00:59:16;;;;;;;1999.90;999.90;;;3.90;99.90;;;;;;4996338;28;20178;-73
2022/02/07 01:01:42;;;;;;;1999.90;999.90;;;3.80;99.90;;;;;;4995925;28;20539;-75
2022/02/07 01:04:07;;;;;;;1999.90;999.90;;;3.70;99.90;;;;;;4993703;28;20232;-75
2022/02/07 01:06:33;;;;;;;1999.90;999.90;;;3.70;99.90;;;;;;4995035;28;20173;-75
2022/02/07 01:09:16;;;;;;;1999.90;999.90;;;3.70;99.90;;;;;;4994812;28;20237;-75
2022/02/07 01:14:16;;;;;;;1999.90;999.90;;;3.60;99.90;;;;;;4993599;28;20305;-74
2022/02/07 01:54:33;;;;;;;1999.90;999.90;;;3.50;99.90;;;;;;4994192;28;20193;-75
2022/02/07 01:56:59;;;;;;;1999.90;999.90;;;3.50;99.90;;;;;;4994158;28;20158;-75
2022/02/07 01:59:25;;;;;;;1999.90;999.90;;;3.60;99.90;;;;;;4994650;28;20170;-75
2022/02/07 02:01:51;;;;;;;1999.90;999.90;;;3.50;99.90;;;;;;4994405;28;20197;-75
2022/02/07 02:04:17;;;;;;;1999.90;999.90;;;3.60;99.90;;;;;;4993698;28;20194;-75
2022/02/07 02:06:44;;;;;;;1999.90;999.90;;;3.60;99.90;;;;;;4996169;28;20498;-75
2022/02/07 02:09:11;;;;;;;1999.90;999.90;;;3.50;99.90;;;;;;4997754;28;20537;-75
2022/02/07 02:11:39;;;;;;;1999.90;999.90;;;3.60;99.90;;;;;;4997739;28;20228;-75
2022/02/07 02:16:42;;;;;;;1999.90;999.90;;;3.60;99.90;;;;;;4998280;28;20260;-75
2022/02/07 02:22:22;;;;;;;1999.90;999.90;;;3.60;99.90;;;;;;4997617;28;20177;-75
2022/02/07 02:38:01;;;;;;;1999.90;999.90;;;3.90;99.90;;;;;;4997093;28;20256;-75
2022/02/07 02:45:41;;;;;;;1999.90;999.90;;;3.70;99.90;;;;;;4997854;28;20220;-75
2022/02/07 02:48:15;;;;;;;1999.90;999.90;;;3.60;99.90;;;;;;4997441;28;20611;-75
2022/02/07 02:50:43;;;;;;;1999.90;999.90;;;3.50;99.90;;;;;;4997625;28;20162;-75
2022/02/07 02:53:14;;;;;;;1999.90;999.90;;;3.40;99.90;;;;;;4997575;28;20197;-75
2022/02/07 02:55:42;;;;;;;1999.90;999.90;;;3.30;99.90;;;;;;4997315;28;20272;-75
2022/02/07 02:58:10;;;;;;;1999.90;999.90;;;3.30;99.90;;;;;;4997229;28;20246;-75
2022/02/07 03:00:37;;;;;;;1999.90;999.90;;;3.20;99.90;;;;;;4997504;28;20166;-75
2022/02/07 03:03:03;;;;;;;1999.90;999.90;;;3.10;99.90;;;;;;4997738;28;20170;-75
2022/02/07 03:05:29;;;;;;;1999.90;999.90;;;3.10;99.90;;;;;;4997001;28;20255;-75
2022/02/07 03:07:55;;;;;;;1999.90;999.90;;;3.10;99.90;;;;;;4996723;28;20165;-75
2022/02/07 03:10:28;;;;;;;1999.90;999.90;;;3.00;99.90;;;;;;4997254;28;20178;-75
2022/02/07 03:18:12;;;;;;;1999.90;999.90;;;3.20;99.90;;;;;;4996298;28;20180;-75
2022/02/07 03:20:38;;;;;;;1999.90;999.90;;;3.20;99.90;;;;;;4996677;28;20256;-75
2022/02/07 03:23:04;;;;;;;1999.90;999.90;;;3.20;99.90;;;;;;4996860;28;20165;-75
2022/02/07 03:25:30;;;;;;;1999.90;999.90;;;3.20;99.90;;;;;;4997024;28;20264;-75
2022/02/07 03:27:55;;;;;;;1999.90;999.90;;;3.20;99.90;;;;;;4997440;28;20170;-75
2022/02/07 03:30:21;;;;;;;1999.90;999.90;;;3.20;99.90;;;;;;4998439;28;20174;-75
2022/02/07 03:32:46;;;;;;;1999.90;999.90;;;3.20;99.90;;;;;;4997221;28;20193;-75
2022/02/07 03:35:12;;;;;;;1999.90;999.90;;;3.20;99.90;;;;;;4997736;28;20216;-75
2022/02/07 03:37:38;;;;;;;1999.90;999.90;;;3.20;99.90;;;;;;4996744;28;20166;-75
2022/02/07 03:40:04;;;;;;;1999.90;999.90;;;3.20;99.90;;;;;;4997226;28;20632;-75
2022/02/07 03:42:29;;;;;;;1999.90;999.90;;;3.20;99.90;;;;;;4997459;28;20181;-75
2022/02/07 03:44:55;;;;;;;1999.90;999.90;;;3.20;99.90;;;;;;4997198;28;20472;-75
2022/02/07 03:47:21;;;;;;;1999.90;999.90;;;3.30;99.90;;;;;;4997062;28;20161;-75
2022/02/07 03:49:46;;;;;;;1999.90;999.90;;;3.30;99.90;;;;;;4996709;28;20413;-74
2022/02/07 03:52:12;;;;;;;1999.90;999.90;;;3.20;99.90;;;;;;4996891;28;20651;-74
2022/02/07 03:54:37;;;;;;;1999.90;999.90;;;3.20;99.90;;;;;;4996640;28;20200;-75
2022/02/07 03:57:04;;;;;;;1999.90;999.90;;;3.20;99.90;;;;;;4997071;28;20189;-75
2022/02/07 03:59:29;;;;;;;1999.90;999.90;;;3.20;99.90;;;;;;4996489;28;20178;-75
2022/02/07 04:01:55;;;;;;;1999.90;999.90;;;3.20;99.90;;;;;;4996300;28;20184;-75
2022/02/07 04:04:20;;;;;;;1999.90;999.90;;;3.20;99.90;;;;;;4996065;28;20695;-75
2022/02/07 04:06:46;;;;;;;1999.90;999.90;;;3.20;99.90;;;;;;4996359;28;20181;-75
2022/02/07 04:09:15;;;;;;;1999.90;999.90;;;3.20;99.90;;;;;;4995880;28;20594;-75
2022/02/07 04:11:50;;;;;;;1999.90;999.90;;;3.10;99.90;;;;;;4996582;28;20632;-75
2022/02/07 04:14:22;;;;;;;1999.90;999.90;;;3.10;99.90;;;;;;4996080;28;20211;-75
2022/02/07 04:16:47;;;;;;;1999.90;999.90;;;3.10;99.90;;;;;;4996587;28;20146;-75
2022/02/07 04:19:21;;;;;;;1999.90;999.90;;;3.10;99.90;;;;;;4996570;28;20224;-75
2022/02/07 04:21:49;;;;;;;1999.90;999.90;;;3.10;99.90;;;;;;4996829;28;20169;-75
2022/02/07 04:24:16;;;;;;;1999.90;999.90;;;3.10;99.90;;;;;;4996021;28;20224;-75
2022/02/07 04:26:41;;;;;;;1999.90;999.90;;;3.00;99.90;;;;;;4995746;28;20173;-75
2022/02/07 04:29:07;;;;;;;1999.90;999.90;;;2.90;99.90;;;;;;4995396;28;20170;-75
2022/02/07 04:31:33;;;;;;;1999.90;999.90;;;2.90;99.90;;;;;;4995626;28;20248;-75
2022/02/07 04:33:58;;;;;;;1999.90;999.90;;;2.90;99.90;;;;;;4995573;28;20204;-75
2022/02/07 04:36:24;;;;;;;1999.90;999.90;;;2.90;99.90;;;;;;4995159;28;20663;-75
2022/02/07 04:38:50;;;;;;;1999.90;999.90;;;3.00;99.90;;;;;;4997317;28;20176;-75
2022/02/07 04:41:15;;;;;;;1999.90;999.90;;;3.00;99.90;;;;;;4996651;28;20182;-75
2022/02/07 04:43:49;;;;;;;1999.90;999.90;;;2.90;99.90;;;;;;4995487;28;20177;-75
2022/02/07 04:46:47;;;;;;;1999.90;999.90;;;2.90;99.90;;;;;;4996282;28;20263;-74
2022/02/07 04:59:54;;;;;;;1999.90;999.90;;;2.80;99.90;;;;;;4996004;28;20158;-75
2022/02/07 05:15:52;;;;;;;1999.90;999.90;;;2.90;99.90;;;;;;4995155;28;20196;-74
2022/02/07 05:18:20;;;;;;;1999.90;999.90;;;2.90;99.90;;;;;;4995215;28;20166;-75
2022/02/07 05:20:45;;;;;;;1999.90;999.90;;;2.90;99.90;;;;;;4995217;28;20169;-75
2022/02/07 05:23:11;;;;;;;1999.90;999.90;;;3.00;99.90;;;;;;4995704;28;20185;-75
2022/02/07 05:25:38;;;;;;;1999.90;999.90;;;3.10;99.90;;;;;;4995445;28;20185;-74
2022/02/07 05:28:04;;;;;;;1999.90;999.90;;;3.10;99.90;;;;;;4996344;28;20177;-75
2022/02/07 05:30:30;;;;;;;1999.90;999.90;;;3.10;99.90;;;;;;4996599;28;20704;-74
2022/02/07 05:32:56;;;;;;;1999.90;999.90;;;3.20;99.90;;;;;;4996954;28;20189;-74
2022/02/07 05:35:21;;;;;;;1999.90;999.90;;;3.30;99.90;;;;;;4996434;28;20261;-75
2022/02/07 05:37:47;;;;;;;1999.90;999.90;;;3.30;99.90;;;;;;4996028;28;20170;-75
2022/02/07 05:40:24;;;;;;;1999.90;999.90;;;3.40;99.90;;;;;;4995979;28;20525;-75
2022/02/07 05:42:50;;;;;;;1999.90;999.90;;;3.50;99.90;;;;;;4999756;28;20532;-74
2022/02/07 05:45:16;;;;;;;1999.90;999.90;;;3.50;99.90;;;;;;4999457;28;20208;-75
2022/02/07 05:47:42;;;;;;;1999.90;999.90;;;3.60;99.90;;;;;;4999176;28;20257;-75
2022/02/07 05:50:08;;;;;;;1999.90;999.90;;;3.60;99.90;;;;;;4999365;28;20257;-75
2022/02/07 05:52:34;;;;;;;1999.90;999.90;;;3.60;99.90;;;;;;4999621;28;20453;-75
2022/02/07 05:54:59;;;;;;;1999.90;999.90;;;3.70;99.90;;;;;;4998363;28;20244;-75
2022/02/07 05:57:25;;;;;;;1999.90;999.90;;;3.70;99.90;;;;;;5000967;28;20170;-74
2022/02/07 05:59:51;;;;;;;1999.90;999.90;;;3.70;99.90;;;;;;4999352;28;20181;-75
2022/02/07 06:02:17;;;;;;;1999.90;999.90;;;3.70;99.90;;;;;;4999719;28;20170;-75
2022/02/07 06:04:42;;;;;;;1999.90;999.90;;;3.70;99.90;;;;;;4999864;28;20190;-75
2022/02/07 06:07:08;;;;;;;1999.90;999.90;;;3.70;99.90;;;;;;4999377;28;20168;-75
2022/02/07 06:09:34;;;;;;;1999.90;999.90;;;3.80;99.90;;;;;;4999429;28;20190;-75
2022/02/07 06:11:59;;;;;;;1999.90;999.90;;;3.80;99.90;;;;;;4999834;28;20166;-75
2022/02/07 06:14:25;;;;;;;1999.90;999.90;;;3.80;99.90;;;;;;4999230;28;20237;-75
2022/02/07 06:16:51;;;;;;;1999.90;999.90;;;3.70;99.90;;;;;;4999041;28;20686;-75
2022/02/07 06:19:17;;;;;;;1999.90;999.90;;;3.80;99.90;;;;;;5000863;28;20177;-75
2022/02/07 06:21:43;;;;;;;1999.90;999.90;;;3.80;99.90;;;;;;4998917;28;20169;-75
2022/02/07 06:24:09;;;;;;;1999.90;999.90;;;3.90;99.90;;;;;;4997238;28;20185;-75
2022/02/07 06:26:34;;;;;;;1999.90;999.90;;;3.90;99.90;;;;;;4999306;28;20240;-75
2022/02/07 06:29:00;;;;;;;1999.90;999.90;;;3.90;99.90;;;;;;4999345;28;20420;-74
2022/02/07 06:31:26;;;;;;;1999.90;999.90;;;4.00;99.90;;;;;;4998851;28;20206;-75
2022/02/07 06:33:52;;;;;;;1999.90;999.90;;;4.00;99.90;;;;;;4999147;28;21001;-75
2022/02/07 06:36:20;;;;;;;1999.90;999.90;;;4.00;99.90;;;;;;4999169;28;20221;-75
2022/02/07 06:38:47;;;;;;;1999.90;999.90;;;4.00;99.90;;;;;;4998540;28;20404;-74
2022/02/07 06:41:13;;;;;;;1999.90;999.90;;;3.90;99.90;;;;;;5000091;28;20546;-75
2022/02/07 06:43:38;;;;;;;1999.90;999.90;;;3.90;99.90;;;;;;4998239;28;20177;-75
2022/02/07 06:46:04;;;;;;;1999.90;999.90;;;3.90;99.90;;;;;;4998274;28;20205;-75
2022/02/07 06:48:30;;;;;;;1999.90;999.90;;;3.90;99.90;;;;;;4999159;28;20170;-75
2022/02/07 06:50:55;;;;;;;1999.90;999.90;;;3.90;99.90;;;;;;5000458;28;20182;-75
2022/02/07 06:53:21;;;;;;;1999.90;999.90;;;3.80;99.90;;;;;;4999787;28;20671;-75
2022/02/07 06:55:48;;;;;;;1999.90;999.90;;;3.80;99.90;;;;;;5000540;28;20667;-75
2022/02/07 06:58:13;;;;;;;1999.90;999.90;;;3.80;99.90;;;;;;5000860;28;20166;-75
2022/02/07 07:00:39;;;;;;;1999.90;999.90;;;3.70;99.90;;;;;;5000987;28;20193;-75
2022/02/07 07:03:05;;;;;;;1999.90;999.90;;;3.70;99.90;;;;;;4999348;28;20193;-75
2022/02/07 07:05:30;;;;;;;1999.90;999.90;;;3.70;99.90;;;;;;4998612;28;20193;-75
2022/02/07 07:07:56;;;;;;;1999.90;999.90;;;3.60;99.90;;;;;;4999746;28;20177;-74
2022/02/07 07:10:22;;;;;;;1999.90;999.90;;;3.70;99.90;;;;;;4999124;28;20174;-75
2022/02/07 07:12:55;;;;;;;1999.90;999.90;;;3.70;99.90;;;;;;4998892;28;20197;-75
2022/02/07 07:15:35;;;;;;;1999.90;999.90;;;3.80;99.90;;;;;;4998572;28;20548;-75
2022/02/07 07:18:01;;;;;;;1999.90;999.90;;;3.90;99.90;;;;;;4999443;28;20185;-75
2022/02/07 07:20:26;;;;;;;1999.90;999.90;;;3.90;99.90;;;;;;5000244;28;20177;-75
2022/02/07 07:22:52;;;;;;;1999.90;999.90;;;3.90;99.90;;;;;;4999058;28;20224;-75
2022/02/07 07:25:18;;;;;;;1999.90;999.90;;;3.90;99.90;;;;;;4999898;28;20193;-75
2022/02/07 07:30:26;;;;;;;1999.90;999.90;;;3.80;99.90;;;;;;5000254;28;20154;-75
2022/02/07 07:32:52;;;;;;;1999.90;999.90;;;3.80;99.90;;;;;;4999652;28;20244;-75
2022/02/07 07:35:17;;;;;;;1999.90;999.90;;;3.70;99.90;;;;;;4999465;28;20182;-75
2022/02/07 07:37:43;;;;;;;1999.90;999.90;;;3.70;99.90;;;;;;4999339;28;20408;-74
2022/02/07 07:40:09;;;;;;;1999.90;999.90;;;3.70;99.90;;;;;;4999093;28;20201;-75
2022/02/07 07:42:35;;;;;;;1999.90;999.90;;;3.70;99.90;;;;;;4999695;28;20236;-75
2022/02/07 07:45:01;;;;;;;1999.90;999.90;;;3.70;99.90;;;;;;4998996;28;20205;-75
2022/02/07 07:47:30;;;;;;;1999.90;999.90;;;3.70;99.90;;;;;;4997013;28;20173;-75
2022/02/07 07:50:15;;;;;;;1999.90;999.90;;;3.70;99.90;;;;;;5000047;28;20173;-75
2022/02/07 07:53:05;;;;;;;1999.90;999.90;;;3.70;99.90;;;;;;4998215;28;20280;-75
2022/02/07 08:03:41;;;;;;;1999.90;999.90;;;3.90;99.90;;;;;;4999246;28;20205;-75
2022/02/07 08:06:20;;;;;;;1999.90;999.90;;;3.90;99.90;;;;;;4998199;28;20244;-75
2022/02/07 08:08:50;;;;;;;1999.90;999.90;;;4.00;99.90;;;;;;4998916;28;20170;-75
2022/02/07 08:11:16;;;;;;;1999.90;999.90;;;4.00;99.90;;;;;;4999560;28;20220;-74
2022/02/07 08:13:44;;;;;;;1999.90;999.90;;;4.00;99.90;;;;;;4998699;28;20197;-74
2022/02/07 08:16:10;;;;;;;1999.90;999.90;;;4.10;99.90;;;;;;5000489;28;20189;-75
2022/02/07 08:18:36;;;;;;;1999.90;999.90;;;4.20;99.90;;;;;;5000644;28;20162;-74
2022/02/07 08:21:02;;;;;;;1999.90;999.90;;;4.30;99.90;;;;;;5000416;28;20200;-75
2022/02/07 08:23:28;;;;;;;1999.90;999.90;;;4.30;99.90;;;;;;5000225;28;20463;-75
2022/02/07 08:25:55;;;;;;;1999.90;999.90;;;4.40;99.90;;;;;;4999101;28;20198;-75
2022/02/07 08:28:21;;;;;;;1999.90;999.90;;;4.40;99.90;;;;;;4998867;28;20551;-75
2022/02/07 08:30:46;;;;;;;1999.90;999.90;;;4.40;99.90;;;;;;4997799;28;20174;-75
2022/02/07 08:33:12;;;;;;;1999.90;999.90;;;4.40;99.90;;;;;;4998855;28;20683;-75
2022/02/07 08:35:37;;;;;;;1999.90;999.90;;;4.40;99.90;;;;;;5000516;28;20188;-75
2022/02/07 08:38:03;;;;;;;1999.90;999.90;;;4.40;99.90;;;;;;4998557;28;20236;-75
2022/02/07 08:40:30;;;;;;;1999.90;999.90;;;4.40;99.90;;;;;;4998627;28;20224;-75
2022/02/07 08:42:56;;;;;;;1999.90;999.90;;;4.50;99.90;;;;;;4997928;28;20178;-75
2022/02/07 08:45:23;;;;;;;1999.90;999.90;;;4.50;99.90;;;;;;4998026;28;20657;-75
2022/02/07 08:47:50;;;;;;;1999.90;999.90;;;4.50;99.90;;;;;;4997335;28;20623;-74
2022/02/07 08:50:16;;;;;;;1999.90;999.90;;;4.50;99.90;;;;;;4997955;28;20176;-75
2022/02/07 08:52:46;;;;;;;1999.90;999.90;;;4.60;99.90;;;;;;4997547;28;20197;-75
2022/02/07 08:55:22;;;;;;;1999.90;999.90;;;4.60;99.90;;;;;;4997279;28;20189;-75
2022/02/07 08:57:53;;;;;;;1999.90;999.90;;;4.60;99.90;;;;;;4997041;28;20173;-75
2022/02/07 09:00:24;;;;;;;1999.90;999.90;;;4.70;99.90;;;;;;4997971;28;20151;-75
2022/02/07 09:06:41;;;;;;;1999.90;999.90;;;4.60;99.90;;;;;;4997572;28;20204;-75
2022/02/07 09:11:03;;;;;;;1999.90;999.90;;;4.60;99.90;;;;;;4998197;28;20157;-74
2022/02/07 09:13:32;;;;;;;1999.90;999.90;;;4.60;99.90;;;;;;4997989;28;20209;-75
2022/02/07 09:16:45;;;;;;;1999.90;999.90;;;4.60;99.90;;;;;;4998139;28;20191;-75
2022/02/07 09:18:46;;;;;;;1999.90;999.90;;;4.60;99.90;;;;;;4993802;28;20181;-75
2022/02/07 09:21:13;;;;;;;1999.90;999.90;;;4.60;99.90;;;;;;4997824;28;20232;-75
2022/02/07 09:23:40;;;;;;;1999.90;999.90;;;4.70;99.90;;;;;;4998704;28;20225;-74
2022/02/07 09:26:06;;;;;;;1999.90;999.90;;;4.70;99.90;;;;;;4998292;28;20197;-74
2022/02/07 09:28:32;;;;;;;1999.90;999.90;;;4.90;99.90;;;;;;4999709;28;20208;-74
2022/02/07 09:30:59;;;;;;;1999.90;999.90;;;5.00;99.90;;;;;;4998987;28;20427;-75
2022/02/07 09:33:25;;;;;;;1999.90;999.90;;;5.10;99.90;;;;;;4998879;28;20614;-75
2022/02/07 09:35:54;;;;;;;1999.90;999.90;;;5.10;99.90;;;;;;4998226;28;20239;-75
2022/02/07 09:38:21;;;;;;;1999.90;999.90;;;5.10;99.90;;;;;;4998692;28;20168;-74
2022/02/07 09:40:51;;;;;;;1999.90;999.90;;;5.20;99.90;;;;;;4998626;28;20169;-75
2022/02/07 09:43:18;;;;;;;1999.90;999.90;;;5.20;99.90;;;;;;4999747;28;20166;-75
2022/02/07 09:45:45;;;;;;;1999.90;999.90;;;5.30;99.90;;;;;;4998196;28;20259;-74
2022/02/07 09:48:13;;;;;;;1999.90;999.90;;;5.30;99.90;;;;;;4997116;28;20409;-75
2022/02/07 09:50:39;;;;;;;1999.90;999.90;;;5.30;99.90;;;;;;4997899;28;20173;-75
2022/02/07 09:53:05;;;;;;;1999.90;999.90;;;5.30;99.90;;;;;;4996829;28;20267;-75
2022/02/07 09:55:33;;;;;;;1999.90;999.90;;;5.30;99.90;;;;;;4997667;28;20260;-74
2022/02/07 09:57:59;;;;;;;1999.90;999.90;;;5.20;99.90;;;;;;4996919;28;20174;-75
2022/02/07 10:00:33;;;;;;;1999.90;999.90;;;5.20;99.90;;;;;;4998398;28;20166;-75
2022/02/07 10:03:26;;;;;;;1999.90;999.90;;;5.30;99.90;;;;;;4998249;28;20178;-75
2022/02/07 10:05:56;;;;;;;1999.90;999.90;;;5.30;99.90;;;;;;4997938;28;20236;-75
2022/02/07 10:16:12;;;;;;;1999.90;999.90;;;5.50;99.90;;;;;;4997913;28;20420;-75
2022/02/07 10:21:42;;;;;;;1999.90;999.90;;;5.60;99.90;;;;;;4978004;28;20653;-74
2022/02/07 10:40:28;;;;;;;1999.90;999.90;;;6.10;99.90;;;;;;4978833;28;20915;-73
2022/02/07 10:46:12;;;;;;;1999.90;999.90;;;6.10;99.90;;;;;;4980021;28;20449;-74
2022/02/07 10:48:45;;;;;;;1999.90;999.90;;;6.00;99.90;;;;;;4978464;28;20453;-74
2022/02/07 10:51:16;;;;;;;1999.90;999.90;;;6.00;99.90;;;;;;4979001;28;20485;-74
2022/02/07 10:53:45;;;;;;;1999.90;999.90;;;6.00;99.90;;;;;;4982846;28;20508;-74
2022/02/07 10:56:12;;;;;;;1999.90;999.90;;;6.00;99.90;;;;;;4976224;28;20472;-75
2022/02/07 10:58:39;;;;;;;1999.90;999.90;;;6.00;99.90;;;;;;4978152;28;20410;-75
2022/02/07 11:04:05;;;;;;;1999.90;999.90;;;6.20;99.90;;;;;;4980455;28;20470;-74
2022/02/07 11:06:36;;;;;;;1999.90;999.90;;;6.10;99.90;;;;;;4981148;28;20398;-75
2022/02/07 11:11:56;;;;;;;1999.90;999.90;;;6.20;99.90;;;;;;4978798;28;20778;-75
2022/02/07 11:23:28;;;;;;;1999.90;999.90;;;6.40;99.90;;;;;;4953610;28;20437;-75
2022/02/07 11:28:28;;;;;;;1999.90;999.90;;;6.60;99.90;;;;;;4979672;28;20421;-74
2022/02/07 11:31:05;;;;;;;1999.90;999.90;;;6.80;99.90;;;;;;4977676;28;20182;-75
2022/02/07 11:34:00;;;;;;;1999.90;999.90;;;6.90;99.90;;;;;;4979117;28;20441;-75
2022/02/07 11:36:30;;;;;;;1999.90;999.90;;;7.00;99.90;;;;;;4979559;28;20975;-74
2022/02/07 11:38:56;;;;;;;1999.90;999.90;;;7.00;99.90;;;;;;4978040;28;20497;-75
2022/02/07 11:41:22;;;;;;;1999.90;999.90;;;7.10;99.90;;;;;;4978500;28;20413;-75
2022/02/07 11:43:48;;;;;;;1999.90;999.90;;;7.30;99.90;;;;;;4975193;28;20413;-76
2022/02/07 11:46:14;;;;;;;1999.90;999.90;;;7.50;99.90;;;;;;4980143;28;20213;-73
2022/02/07 11:48:39;;;;;;;1999.90;999.90;;;7.60;99.90;;;;;;4975826;28;20173;-75
2022/02/07 11:51:21;;;;;;;1999.90;999.90;;;7.30;99.90;;;;;;4974915;28;20198;-74
2022/02/07 11:53:54;;;;;;;1999.90;999.90;;;7.20;99.90;;;;;;4974258;28;20205;-74
2022/02/07 11:56:33;;;;;;;1999.90;999.90;;;7.20;99.90;;;;;;4973288;28;20421;-74
2022/02/07 11:59:06;;;;;;;1999.90;999.90;;;7.20;99.90;;;;;;4974194;28;20406;-74
2022/02/07 12:01:47;;;;;;;1999.90;999.90;;;7.20;99.90;;;;;;4974250;28;20453;-74
2022/02/07 12:04:27;;;;;;;1999.90;999.90;;;7.10;99.90;;;;;;4973595;28;20417;-75
2022/02/07 12:07:11;;;;;;;1999.90;999.90;;;7.00;99.90;;;;;;5103829;22;20487;-76
2022/02/07 12:09:38;;;;;;;1999.90;999.90;;;7.10;99.90;;;;;;5013204;28;20403;-77
2022/02/07 12:12:05;;;;;;;1999.90;999.90;;;7.10;99.90;;;;;;5012382;28;20411;-76
2022/02/07 12:14:33;;;;;;;1999.90;999.90;;;7.10;99.90;;;;;;5012516;28;20979;-76
2022/02/07 12:16:59;;;;;;;1999.90;999.90;;;7.10;99.90;;;;;;5012506;28;20424;-76
2022/02/07 12:19:39;;;;;;;1999.90;999.90;;;7.10;99.90;;;;;;5012454;28;20792;-77
2022/02/07 12:22:14;;;;;;;1999.90;999.90;;;7.20;99.90;;;;;;5013079;28;20408;-76
2022/02/07 12:24:57;;;;;;;1999.90;999.90;;;7.10;99.90;;;;;;5012222;28;20424;-76
2022/02/07 12:28:11;;;;;;;1999.90;999.90;;;7.20;99.90;;;;;;5061673;22;20486;-76
2022/02/07 12:33:54;;;;;;;1999.90;999.90;;;7.80;99.90;;;;;;5022242;28;20458;-77
2022/02/07 12:36:20;;;;;;;1999.90;999.90;;;7.50;99.90;;;;;;5031927;28;20767;-76
2022/02/07 12:38:46;;;;;;;1999.90;999.90;;;7.50;99.90;;;;;;5032105;28;20411;-78
2022/02/07 12:41:14;;;;;;;1999.90;999.90;;;7.50;99.90;;;;;;5032093;28;20408;-76
2022/02/07 12:43:44;;;;;;;1999.90;999.90;;;7.50;99.90;;;;;;5032322;28;20813;-76
2022/02/07 12:46:12;;;;;;;1999.90;999.90;;;7.40;99.90;;;;;;5031671;28;20430;-77
2022/02/07 12:48:43;;;;;;;1999.90;999.90;;;7.40;99.90;;;;;;5030639;28;20418;-77
2022/02/07 12:51:08;;;;;;;1999.90;999.90;;;7.40;99.90;;;;;;5032588;28;20904;-78
2022/02/07 12:53:35;;;;;;;1999.90;999.90;;;7.40;99.90;;;;;;5032317;28;20512;-76
2022/02/07 12:56:05;;;;;;;1999.90;999.90;;;7.20;99.90;;;;;;5031373;28;20554;-78
2022/02/07 12:58:41;;;;;;;1999.90;999.90;;;7.20;99.90;;;;;;5031620;28;20501;-76
2022/02/07 13:01:25;;;;;;;1999.90;999.90;;;7.10;99.90;;;;;;5032339;28;20394;-78
2022/02/07 13:04:00;;;;;;;1999.90;999.90;;;7.00;99.90;;;;;;5031521;28;20422;-77
2022/02/07 13:06:38;;;;;;;1999.90;999.90;;;7.00;99.90;;;;;;5109324;22;20478;-76
2022/02/07 13:09:19;;;;;;;1999.90;999.90;;;7.00;99.90;;;;;;5031414;28;20749;-76
2022/02/07 13:11:59;;;;;;;1999.90;999.90;;;6.90;99.90;;;;;;5031603;28;20411;-76
2022/02/07 13:14:25;;;;;;;1999.90;999.90;;;7.00;99.90;;;;;;5031297;28;20458;-76
2022/02/07 13:16:51;;;;;;;1999.90;999.90;;;7.00;99.90;;;;;;5253843;22;20522;-76
2022/02/07 13:19:20;;;;;;;1999.90;999.90;;;7.00;99.90;;;;;;5031738;28;20493;-76
2022/02/07 13:21:48;;;;;;;1999.90;999.90;;;7.10;99.90;;;;;;5031518;28;20482;-76
2022/02/07 13:24:19;;;;;;;1999.90;999.90;;;7.20;99.90;;;;;;5031033;28;20924;-76
2022/02/07 13:26:50;;;;;;;1999.90;999.90;;;7.40;99.90;;;;;;5031707;28;21017;-76
2022/02/07 13:29:23;;;;;;;1999.90;999.90;;;7.40;99.90;;;;;;5032052;28;20407;-76
2022/02/07 13:31:59;;;;;;;1999.90;999.90;;;7.50;99.90;;;;;;5031135;28;20395;-76
2022/02/07 13:34:27;;;;;;;1999.90;999.90;;;7.50;99.90;;;;;;5031342;28;20484;-76
2022/02/07 13:37:03;;;;;;;1999.90;999.90;;;7.60;99.90;;;;;;5031544;28;20466;-76
2022/02/07 13:39:30;;;;;;;1999.90;999.90;;;7.60;99.90;;;;;;5031117;28;20448;-76
2022/02/07 13:42:03;;;;;;;1999.90;999.90;;;7.60;99.90;;;;;;5031430;28;20407;-76
2022/02/07 13:44:29;;;;;;;1999.90;999.90;;;7.60;99.90;;;;;;5031089;28;20410;-76
2022/02/07 13:47:02;;;;;;;1999.90;999.90;;;7.60;99.90;;;;;;5031041;28;20812;-75
2022/02/07 13:49:31;;;;;;;1999.90;999.90;;;7.80;99.90;;;;;;5031531;28;20407;-76
2022/02/07 13:51:57;;;;;;;1999.90;999.90;;;8.10;99.90;;;;;;5031405;28;20705;-76
2022/02/07 13:54:31;;;;;;;1999.90;999.90;;;8.10;99.90;;;;;;5030816;28;20459;-76
2022/02/07 13:56:59;;;;;;;1999.90;999.90;;;8.20;99.90;;;;;;5090204;22;20561;-76
2022/02/07 13:59:25;;;;;;;1999.90;999.90;;;8.20;99.90;;;;;;5031388;28;20453;-76
2022/02/07 14:01:51;;;;;;;1999.90;999.90;;;8.40;99.90;;;;;;5032185;28;20762;-76
2022/02/07 14:04:24;;;;;;;1999.90;999.90;;;8.60;99.90;;;;;;5035126;28;20779;-76
2022/02/07 14:07:11;;;;;;;1999.90;999.90;;;9.10;99.90;;;;;;5035070;28;21005;-76
2022/02/07 14:09:40;;;;;;;1999.90;999.90;;;9.60;99.90;;;;;;5034746;28;20532;-76
2022/02/07 14:12:07;;;;;;;1999.90;999.90;;;9.80;99.90;;;;;;5035043;28;20405;-76
2022/02/07 14:14:33;;;;;;;1999.90;999.90;;;10.50;99.90;;;;;;5034735;28;21055;-76
2022/02/07 14:16:59;;;;;;;1999.90;999.90;;;10.20;99.90;;;;;;5034632;28;20506;-76
2022/02/07 14:19:40;;;;;;;1999.90;999.90;;;9.70;99.90;;;;;;5035128;28;20482;-76
2022/02/07 14:22:08;;;;;;;1999.90;999.90;;;9.20;99.90;;;;;;5034846;28;20403;-76
2022/02/07 14:24:34;;;;;;;1999.90;999.90;;;9.20;99.90;;;;;;5033038;28;20447;-76
2022/02/07 14:26:59;;;;;;;1999.90;999.90;;;9.40;99.90;;;;;;5035189;28;20430;-76
2022/02/07 14:29:25;;;;;;;1999.90;999.90;;;9.40;99.90;;;;;;5034735;28;20496;-76
2022/02/07 14:31:51;;;;;;;1999.90;999.90;;;9.70;99.90;;;;;;5034099;28;20169;-76
2022/02/07 14:34:16;;;;;;;1999.90;999.90;;;9.70;99.90;;;;;;5034779;28;20199;-76
2022/02/07 14:36:42;;;;;;;1999.90;999.90;;;9.50;99.90;;;;;;5034562;28;20188;-76
2022/02/07 14:39:08;;;;;;;1999.90;999.90;;;9.30;99.90;;;;;;5034206;28;20237;-76
2022/02/07 14:41:34;;;;;;;1999.90;999.90;;;9.30;99.90;;;;;;5034677;28;20634;-76
2022/02/07 14:44:02;;;;;;;1999.90;999.90;;;9.80;99.90;;;;;;5034250;28;20403;-76
2022/02/07 14:46:42;;;;;;;1999.90;999.90;;;10.50;99.90;;;;;;5057905;22;20487;-76
2022/02/07 14:49:08;;;;;;;1999.90;999.90;;;11.00;99.90;;;;;;5034513;28;20465;-76
2022/02/07 14:51:34;;;;;;;1999.90;999.90;;;11.10;99.90;;;;;;5034475;28;20947;-76
2022/02/07 14:53:59;;;;;;;1999.90;999.90;;;10.60;99.90;;;;;;5033912;28;20454;-76
2022/02/07 14:56:25;;;;;;;1999.90;999.90;;;10.80;99.90;;;;;;5034150;28;20184;-76
2022/02/07 14:58:52;;;;;;;1999.90;999.90;;;10.60;99.90;;;;;;5034270;28;20160;-76